Worcester, Massachusetts
Current Conditions -  °F | °C
As of 8:08 PM on Monday 22 Dec 2014 (Local Time) from KORH Reporting Station
Moderate Fog Moderate Fog  
Wind Chill: -3°   Ceiling: 200
Heat Index:   Visibility: 0.25mi
Dew Point:   Wind: 7mph
Humidity: 100%   Direction: 40°NE
Pressure: 30.27"   Gusts: NA
Location:  42.26°N, 71.8°W
Report Text: KORH 230108Z 04006KT 1/4SM R11/1400V1800FT FG VV002 01/01 A3027 RMK AO2 T00060006
Loading
Personal Weather Stations






























Interactive Weather Map New forecast layout! Learn more

10-Day Weather Forecast

Advertisements
Track Severe Weather on mobile